»·PEaware :: AAL1514 KSAN-KPHX

AAL1514 :: KSAN-KPHX

FLIGHT INFORMATION

Flight Status: Arrived
Operator:
American Airlines
More flights by this operator :: More flights under this callsign
Pilot: John C. (18682)
Aircraft: AIRBUS A320
(A320)
More flights by this aircraft type
Origin: KSAN San Diego Intl-Lindbergh
United States
Destination: KPHX Phoenix Sky Harbor Intl
United States
More flights between these airports :: More routes between these airports
Route: ZZOOO2 IPL J18 BZA HOGGZ HYDRR1
File this flight plan on PilotEdge
Remarks:
Altitude:
(Current/Filed)
29,000ft
Speed:
(Current/Filed)
448kts
Departed: 20-Oct-20 04:52 PM
Arrived: 20-Oct-20 05:46 PM
Distance/Time
Traveled:
264nm/0:54
Distance/Time
To Go:
Arrived

Flight Plot

Page will automatically refresh every two minutes.

Flight plan parsing failed; only flown route is shown


Map Options




Map Legend


Flown Route
Filed Route
Departure Airport
Arrival Airport
Navaid (VOR, NDB)
Fix

Horizontal Profiles

Position Reports

Time Latitude Longitude Heading Altitude Ground
Speed
20-Oct-20 16:23 32.732888 -117.201662 92 19ft 0kts
20-Oct-20 16:25 32.732888 -117.201662 92 19ft 0kts
20-Oct-20 16:25 32.732888 -117.201662 92 19ft 0kts
20-Oct-20 16:27 32.732888 -117.201662 92 19ft 0kts
20-Oct-20 16:27 32.732888 -117.201662 92 19ft 0kts
20-Oct-20 16:29 32.732888 -117.201662 92 19ft 0kts
20-Oct-20 16:29 32.732888 -117.201662 92 19ft 0kts
20-Oct-20 16:30 32.732888 -117.201662 92 19ft 0kts
20-Oct-20 16:31 32.732888 -117.201662 92 19ft 0kts
20-Oct-20 16:32 32.732888 -117.201662 92 19ft 0kts
20-Oct-20 16:33 32.732888 -117.201662 92 19ft 0kts
20-Oct-20 16:34 32.732888 -117.201662 92 19ft 0kts
20-Oct-20 16:35 32.732888 -117.201662 92 19ft 0kts
20-Oct-20 16:36 32.732888 -117.201662 92 19ft 0kts
20-Oct-20 16:37 32.732888 -117.201662 92 19ft 0kts
20-Oct-20 16:38 32.732888 -117.201663 92 19ft 0kts
20-Oct-20 16:39 32.732906 -117.202163 93 19ft 1kts
20-Oct-20 16:40 32.732612 -117.202432 354 19ft 0kts
20-Oct-20 16:41 32.732613 -117.202432 354 19ft 0kts
20-Oct-20 16:42 32.733405 -117.202661 344 19ft 10kts
20-Oct-20 16:43 32.734922 -117.202390 15 19ft 0kts
20-Oct-20 16:44 32.734922 -117.202390 15 19ft 0kts
20-Oct-20 16:45 32.734922 -117.202390 15 19ft 0kts
20-Oct-20 16:46 32.735276 -117.201089 105 19ft 11kts
20-Oct-20 16:47 32.733605 -117.194173 105 22ft 25kts
20-Oct-20 16:48 32.731521 -117.185584 106 19ft 26kts
20-Oct-20 16:49 32.729591 -117.177633 106 23ft 15kts
20-Oct-20 16:50 32.730582 -117.177402 286 25ft 23kts
20-Oct-20 16:51 32.741063 -117.219863 285 1871ft 163kts
20-Oct-20 16:52 32.755856 -117.285380 272 4450ft 246kts
20-Oct-20 16:53 32.702014 -117.329500 161 7722ft 292kts
20-Oct-20 16:54 32.642662 -117.261521 127 10856ft 323kts
20-Oct-20 16:55 32.622453 -117.148677 94 12828ft 371kts
20-Oct-20 16:56 32.611530 -117.023683 95 15268ft 392kts
20-Oct-20 16:57 32.606373 -116.892687 78 17635ft 405kts
20-Oct-20 16:58 32.631447 -116.760004 82 19692ft 419kts
20-Oct-20 16:59 32.645188 -116.620358 84 21508ft 432kts
20-Oct-20 17:00 32.659174 -116.476150 84 23144ft 445kts
20-Oct-20 17:01 32.673347 -116.328122 84 24606ft 458kts
20-Oct-20 17:02 32.687789 -116.175279 84 25863ft 472kts
20-Oct-20 17:03 32.702450 -116.018103 84 27114ft 482kts
20-Oct-20 17:04 32.717269 -115.857942 83 28286ft 491kts
20-Oct-20 17:05 32.732084 -115.695557 83 28870ft 491kts
20-Oct-20 17:06 32.746614 -115.533855 84 28865ft 492kts
20-Oct-20 17:07 32.752203 -115.370998 88 28855ft 491kts
20-Oct-20 17:08 32.755970 -115.208565 88 28854ft 490kts
20-Oct-20 17:09 32.759517 -115.046195 87 28867ft 490kts
20-Oct-20 17:10 32.762237 -114.884739 92 28897ft 487kts
20-Oct-20 17:11 32.761092 -114.727246 82 28899ft 485kts
20-Oct-20 17:12 32.768340 -114.567421 86 28850ft 483kts
20-Oct-20 17:13 32.770838 -114.407340 87 28832ft 483kts
20-Oct-20 17:14 32.772866 -114.247235 87 28850ft 483kts
20-Oct-20 17:15 32.774804 -114.087323 86 28864ft 484kts
20-Oct-20 17:16 32.789840 -113.933903 80 28032ft 453kts
20-Oct-20 17:17 32.805729 -113.788267 80 26138ft 436kts
20-Oct-20 17:18 32.840014 -113.656577 46 24608ft 411kts
20-Oct-20 17:19 32.915601 -113.555144 46 23622ft 406kts
20-Oct-20 17:20 32.990036 -113.454796 46 22676ft 402kts
20-Oct-20 17:21 33.063352 -113.355645 46 21727ft 394kts
20-Oct-20 17:22 33.135594 -113.257992 47 20706ft 389kts
20-Oct-20 17:23 33.206750 -113.161522 47 19705ft 384kts
20-Oct-20 17:24 33.271523 -113.063695 72 18814ft 360kts
20-Oct-20 17:25 33.277382 -112.946196 87 17900ft 355kts
20-Oct-20 17:26 33.280309 -112.829869 85 17082ft 334kts
20-Oct-20 17:27 33.289989 -112.721353 81 15794ft 323kts
20-Oct-20 17:28 33.299846 -112.615902 81 14462ft 316kts
20-Oct-20 17:29 33.309459 -112.512218 81 13154ft 309kts
20-Oct-20 17:30 33.318745 -112.411152 81 11886ft 302kts
20-Oct-20 17:31 33.327779 -112.312222 82 10580ft 293kts
20-Oct-20 17:32 33.336779 -112.213547 82 9199ft 300kts
20-Oct-20 17:33 33.345411 -112.115091 83 7838ft 294kts
20-Oct-20 17:34 33.346292 -112.016384 89 7781ft 293kts
20-Oct-20 17:35 33.345483 -111.926097 89 7280ft 259kts
20-Oct-20 17:36 33.345475 -111.842533 89 6965ft 246kts
20-Oct-20 17:37 33.345575 -111.765380 88 6640ft 208kts
20-Oct-20 17:38 33.364503 -111.708554 5 5855ft 200kts
20-Oct-20 17:39 33.416996 -111.722054 315 4822ft 195kts
20-Oct-20 17:40 33.442729 -111.776192 270 3603ft 193kts
20-Oct-20 17:41 33.440965 -111.837871 269 2680ft 171kts
20-Oct-20 17:42 33.440743 -111.894582 269 2437ft 168kts
20-Oct-20 17:43 33.440737 -111.944660 269 1944ft 139kts
20-Oct-20 17:44 33.440841 -111.990555 270 1203ft 138kts
20-Oct-20 17:45 33.440300 -112.010819 199 1128ft 5kts
20-Oct-20 17:46 33.439195 -112.011158 143 1128ft 9kts
20-Oct-20 17:47 33.439007 -112.005853 89 1131ft 19kts
20-Oct-20 17:48 33.438242 -112.000703 172 1131ft 12kts
20-Oct-20 17:49 33.437176 -111.999803 89 1131ft 0kts
20-Oct-20 17:50 33.437176 -111.999803 89 1131ft 0kts

Navigation Log

Ident Type
Flight plan parsing failed, navigation log unavailable